createdAt,value
2023-02-28T00:01:29.030Z,6.85
2023-02-28T00:03:57.205Z,5.68
2023-02-28T00:06:25.392Z,5.30
2023-02-28T00:08:52.795Z,6.13
2023-02-28T00:11:20.112Z,4.60
2023-02-28T00:13:48.456Z,5.13
2023-02-28T00:16:21.550Z,5.20
2023-02-28T00:18:49.388Z,5.53
2023-02-28T00:21:17.871Z,5.35
2023-02-28T00:23:45.279Z,7.15
2023-02-28T00:26:12.510Z,7.25
2023-02-28T00:28:42.058Z,8.68
2023-02-28T00:31:09.243Z,8.90
2023-02-28T00:33:36.803Z,8.27
2023-02-28T00:36:09.629Z,8.68
2023-02-28T00:38:37.629Z,7.63
2023-02-28T00:41:05.950Z,7.38
2023-02-28T00:43:35.515Z,8.45
2023-02-28T00:46:03.828Z,6.80
2023-02-28T00:48:31.520Z,5.95
2023-02-28T00:50:58.872Z,5.45
2023-02-28T00:53:26.486Z,5.32
2023-02-28T00:55:53.891Z,4.80
2023-02-28T00:58:21.423Z,5.13
2023-02-28T01:00:50.209Z,4.50
2023-02-28T01:03:19.529Z,5.05
2023-02-28T01:05:47.826Z,3.97
2023-02-28T01:08:17.751Z,3.53
2023-02-28T01:10:44.948Z,3.90
2023-02-28T01:13:13.155Z,4.10
2023-02-28T01:15:47.323Z,4.65
2023-02-28T01:18:14.693Z,4.32
2023-02-28T01:20:41.842Z,3.65
2023-02-28T01:23:10.584Z,4.28
2023-02-28T01:25:37.824Z,4.38
2023-02-28T01:28:06.977Z,4.68
2023-02-28T01:30:35.038Z,3.80
2023-02-28T01:33:02.510Z,5.25
2023-02-28T01:35:29.784Z,3.78
2023-02-28T01:38:02.827Z,3.83
2023-02-28T01:40:34.066Z,3.42
2023-02-28T01:43:01.229Z,4.35
2023-02-28T01:45:32.486Z,4.68
2023-02-28T01:48:05.090Z,3.80
2023-02-28T01:50:40.001Z,3.75
2023-02-28T01:53:11.696Z,4.03
2023-02-28T01:55:40.958Z,3.40
2023-02-28T01:58:10.268Z,4.00
2023-02-28T02:00:37.786Z,4.25
2023-02-28T02:03:12.035Z,4.18
2023-02-28T02:05:41.003Z,3.65
2023-02-28T02:08:13.317Z,3.60
2023-02-28T02:11:02.228Z,3.65
2023-02-28T02:13:53.875Z,4.15
2023-02-28T02:16:20.938Z,3.72
2023-02-28T02:18:53.911Z,4.75
2023-02-28T02:21:42.770Z,4.82
2023-02-28T02:24:36.361Z,4.97
2023-02-28T02:27:03.495Z,3.53
2023-02-28T02:29:36.400Z,4.45
2023-02-28T02:32:18.927Z,3.08
2023-02-28T02:35:04.473Z,3.65
2023-02-28T02:37:44.211Z,3.17
2023-02-28T02:40:33.706Z,3.08
2023-02-28T02:43:22.871Z,2.65
2023-02-28T02:46:00.637Z,3.33
2023-02-28T02:48:32.131Z,3.03
2023-02-28T02:51:03.408Z,3.72
2023-02-28T02:53:53.332Z,4.07
2023-02-28T02:56:25.843Z,2.40
2023-02-28T02:58:57.598Z,2.63
2023-02-28T03:01:30.470Z,3.72
2023-02-28T03:04:13.116Z,3.95
2023-02-28T03:06:40.283Z,3.03
2023-02-28T03:09:07.236Z,4.00
2023-02-28T03:11:38.116Z,4.50
2023-02-28T03:14:10.981Z,4.40
2023-02-28T03:16:59.238Z,4.35
2023-02-28T03:19:54.179Z,3.58
2023-02-28T03:22:31.496Z,3.67
2023-02-28T03:25:30.905Z,4.38
2023-02-28T03:28:42.923Z,4.40
2023-02-28T03:31:15.771Z,4.43
2023-02-28T03:33:55.757Z,4.07
2023-02-28T03:36:30.315Z,4.55
2023-02-28T03:39:05.213Z,4.80
2023-02-28T03:41:51.850Z,3.47
2023-02-28T03:44:28.135Z,3.60
2023-02-28T03:47:05.390Z,4.15
2023-02-28T03:49:48.833Z,4.97
2023-02-28T03:52:18.704Z,4.97
2023-02-28T03:54:50.164Z,4.80
2023-02-28T03:57:17.544Z,5.28
2023-02-28T03:59:51.091Z,5.32
2023-02-28T04:02:19.750Z,4.78
2023-02-28T04:04:49.493Z,3.63
2023-02-28T04:07:17.340Z,4.53
2023-02-28T04:09:44.874Z,5.03
2023-02-28T04:12:12.283Z,3.90
2023-02-28T04:14:39.522Z,4.25
2023-02-28T04:17:06.708Z,4.82
2023-02-28T04:19:33.775Z,4.38
2023-02-28T04:22:00.796Z,3.80
2023-02-28T04:24:29.166Z,3.63
2023-02-28T04:26:58.134Z,3.60
2023-02-28T04:29:27.918Z,3.78
2023-02-28T04:31:56.325Z,3.55
2023-02-28T04:34:24.703Z,3.22
2023-02-28T04:37:06.132Z,3.40
2023-02-28T04:39:39.085Z,3.33
2023-02-28T04:42:06.531Z,3.20
2023-02-28T04:44:33.572Z,3.47
2023-02-28T04:47:01.359Z,3.40
2023-02-28T04:49:28.545Z,2.63
2023-02-28T04:51:55.929Z,2.75
2023-02-28T04:54:23.040Z,3.08
2023-02-28T04:56:50.995Z,3.22
2023-02-28T04:59:18.539Z,3.13
2023-02-28T05:01:50.199Z,3.10
2023-02-28T05:04:17.698Z,4.30
2023-02-28T05:06:44.799Z,3.70
2023-02-28T05:09:14.530Z,2.92
2023-02-28T05:11:41.967Z,3.60
2023-02-28T05:14:13.986Z,2.70
2023-02-28T05:16:41.721Z,2.80
2023-02-28T05:19:09.029Z,3.10
2023-02-28T05:21:39.140Z,4.03
2023-02-28T05:24:13.064Z,3.50
2023-02-28T05:26:42.674Z,4.15
2023-02-28T05:29:10.732Z,3.42
2023-02-28T05:31:38.520Z,3.00
2023-02-28T05:34:05.760Z,3.40
2023-02-28T05:36:33.377Z,3.65
2023-02-28T05:39:00.571Z,3.72
2023-02-28T05:41:28.283Z,3.10
2023-02-28T05:43:55.585Z,3.97
2023-02-28T05:46:22.798Z,3.63
2023-02-28T05:48:50.203Z,5.13
2023-02-28T05:51:18.350Z,3.50
2023-02-28T05:53:45.694Z,3.28
2023-02-28T05:56:12.784Z,3.35
2023-02-28T05:58:39.794Z,4.45
2023-02-28T06:01:25.731Z,3.88
2023-02-28T06:03:52.950Z,4.47
2023-02-28T06:06:20.026Z,3.65
2023-02-28T06:08:47.319Z,3.42
2023-02-28T06:11:14.989Z,4.97
2023-02-28T06:13:42.073Z,4.70
2023-02-28T06:16:12.059Z,6.75
2023-02-28T06:18:39.883Z,5.45
2023-02-28T06:21:07.095Z,5.80
2023-02-28T06:23:34.266Z,6.40
2023-02-28T06:26:01.544Z,6.55
2023-02-28T06:28:28.661Z,7.10
2023-02-28T06:30:55.773Z,7.43
2023-02-28T06:33:22.819Z,8.55
2023-02-28T06:35:53.541Z,7.82
2023-02-28T06:38:20.658Z,7.63
2023-02-28T06:40:57.863Z,7.32
2023-02-28T06:43:26.507Z,9.20
2023-02-28T06:45:57.457Z,9.27
2023-02-28T06:48:25.248Z,7.72
2023-02-28T06:50:52.254Z,8.50
2023-02-28T06:53:19.510Z,9.70
2023-02-28T06:55:46.608Z,9.85
2023-02-28T06:58:16.645Z,8.93
2023-02-28T07:00:44.974Z,9.60
2023-02-28T07:03:13.805Z,10.38
2023-02-28T07:05:41.107Z,12.30
2023-02-28T07:08:08.622Z,12.25
2023-02-28T07:10:38.276Z,10.60
2023-02-28T07:13:07.549Z,11.63
2023-02-28T07:15:34.592Z,12.15
2023-02-28T07:18:01.714Z,10.40
2023-02-28T07:20:31.318Z,10.88
2023-02-28T07:22:58.414Z,12.80
2023-02-28T07:25:27.859Z,10.32
2023-02-28T07:27:55.544Z,10.05
2023-02-28T07:30:22.874Z,11.98
2023-02-28T07:32:49.956Z,10.85
2023-02-28T07:35:17.111Z,11.05
2023-02-28T07:37:44.382Z,10.75
2023-02-28T07:40:12.724Z,10.07
2023-02-28T07:42:41.404Z,10.75
2023-02-28T07:45:12.799Z,10.70
2023-02-28T07:47:40.372Z,9.88
2023-02-28T07:50:11.561Z,10.88
2023-02-28T07:52:39.664Z,10.02
2023-02-28T07:55:08.004Z,8.95
2023-02-28T07:57:35.465Z,9.73
2023-02-28T08:00:04.714Z,10.20
2023-02-28T08:02:38.535Z,9.85
2023-02-28T08:05:06.911Z,11.63
2023-02-28T08:07:34.594Z,11.10
2023-02-28T08:10:01.708Z,9.35
2023-02-28T08:12:28.768Z,8.85
2023-02-28T08:14:55.804Z,8.27
2023-02-28T08:17:22.959Z,7.70
2023-02-28T08:19:50.225Z,9.32
2023-02-28T08:26:45.082Z,9.40
2023-02-28T08:29:12.399Z,7.85
2023-02-28T08:31:39.798Z,8.88
2023-02-28T08:34:12.939Z,9.18
2023-02-28T08:36:41.015Z,8.52
2023-02-28T08:39:08.601Z,8.90
2023-02-28T08:41:35.860Z,8.23
2023-02-28T08:44:02.943Z,8.63
2023-02-28T08:46:30.226Z,7.55
2023-02-28T08:49:03.207Z,9.60
2023-02-28T08:51:31.246Z,7.53
2023-02-28T08:54:02.261Z,8.73
2023-02-28T08:56:30.192Z,7.72
2023-02-28T08:58:58.862Z,8.27
2023-02-28T09:01:29.304Z,8.93
2023-02-28T09:03:57.676Z,9.15
2023-02-28T09:06:27.954Z,8.88
2023-02-28T09:08:59.856Z,8.00
2023-02-28T09:11:27.236Z,10.10
2023-02-28T09:13:54.443Z,9.63
2023-02-28T09:16:21.581Z,9.45
2023-02-28T09:18:49.026Z,8.65
2023-02-28T09:21:19.070Z,8.50
2023-02-28T09:23:48.266Z,9.25
2023-02-28T09:26:21.241Z,8.95
2023-02-28T09:28:48.504Z,8.05
2023-02-28T09:31:23.437Z,8.85
2023-02-28T09:33:53.117Z,8.13
2023-02-28T09:36:21.144Z,8.60
2023-02-28T09:38:52.172Z,7.85
2023-02-28T09:41:23.342Z,9.18
2023-02-28T09:43:59.874Z,8.80
2023-02-28T09:46:33.976Z,7.35
2023-02-28T09:49:08.851Z,8.38
2023-02-28T09:51:49.896Z,8.88
2023-02-28T09:54:21.226Z,9.45
2023-02-28T09:57:07.845Z,8.68
2023-02-28T09:59:52.398Z,8.98
2023-02-28T10:02:50.236Z,8.13
2023-02-28T10:05:24.357Z,7.95
2023-02-28T10:08:12.327Z,9.55
2023-02-28T10:10:54.470Z,10.10
2023-02-28T10:13:44.346Z,8.80
2023-02-28T10:16:47.479Z,8.10
2023-02-28T10:19:21.728Z,9.00
2023-02-28T10:22:02.719Z,10.18
2023-02-28T10:24:55.390Z,8.82
2023-02-28T10:27:27.596Z,9.13
2023-02-28T10:29:57.455Z,7.93
2023-02-28T10:32:31.279Z,9.32
2023-02-28T10:35:01.372Z,8.93
2023-02-28T10:37:29.467Z,8.95
2023-02-28T10:39:57.442Z,9.43
2023-02-28T10:42:31.110Z,8.60
2023-02-28T10:45:10.515Z,10.23
2023-02-28T10:48:03.955Z,8.73
2023-02-28T10:50:52.208Z,11.88
2023-02-28T10:53:28.062Z,9.90
2023-02-28T10:56:11.479Z,9.48
2023-02-28T10:59:21.044Z,9.05
2023-02-28T11:01:54.041Z,9.10
2023-02-28T11:04:41.567Z,10.30
2023-02-28T11:07:24.353Z,10.45
2023-02-28T11:09:56.522Z,8.75
2023-02-28T11:12:26.626Z,9.40
2023-02-28T11:14:58.234Z,8.98
2023-02-28T11:17:34.783Z,9.38
2023-02-28T11:20:19.034Z,8.30
2023-02-28T11:22:47.276Z,9.13
2023-02-28T11:25:39.241Z,8.77
2023-02-28T11:28:25.877Z,9.00
2023-02-28T11:31:06.229Z,8.48
2023-02-28T11:33:43.574Z,9.25
2023-02-28T11:36:15.571Z,10.63
2023-02-28T11:38:43.188Z,8.57
2023-02-28T11:41:41.140Z,7.85
2023-02-28T11:44:18.770Z,8.40
2023-02-28T11:46:53.181Z,7.43
2023-02-28T11:50:02.131Z,8.90
2023-02-28T11:52:50.820Z,10.40
2023-02-28T11:55:24.835Z,9.55
2023-02-28T11:57:55.555Z,9.15
2023-02-28T12:00:54.790Z,11.73
2023-02-28T12:03:44.848Z,10.45
2023-02-28T12:06:25.063Z,9.13
2023-02-28T12:09:13.845Z,10.48
2023-02-28T12:11:56.901Z,11.18
2023-02-28T12:14:35.731Z,10.27
2023-02-28T12:17:21.460Z,10.82
2023-02-28T12:19:52.377Z,11.15
2023-02-28T12:22:33.032Z,11.00
2023-02-28T12:25:22.370Z,13.13
2023-02-28T12:27:54.253Z,10.90
2023-02-28T12:30:26.203Z,11.43
2023-02-28T12:33:04.380Z,11.02
2023-02-28T12:35:56.946Z,11.93
2023-02-28T12:38:29.355Z,11.02
2023-02-28T12:41:05.337Z,10.55
2023-02-28T12:43:38.819Z,9.65
2023-02-28T12:46:20.914Z,9.38
2023-02-28T12:48:54.962Z,9.95
2023-02-28T12:51:22.944Z,9.23
2023-02-28T12:54:06.943Z,9.82
2023-02-28T12:57:06.068Z,9.88
2023-02-28T12:59:44.120Z,10.18
2023-02-28T13:02:42.084Z,10.15
2023-02-28T13:05:37.290Z,10.40
2023-02-28T13:08:10.062Z,10.90
2023-02-28T13:10:45.475Z,9.30
2023-02-28T13:13:21.964Z,10.98
2023-02-28T13:16:21.747Z,11.43
2023-02-28T13:18:49.845Z,9.15
2023-02-28T13:21:28.301Z,9.45
2023-02-28T13:24:02.818Z,11.02
2023-02-28T13:26:38.744Z,11.65
2023-02-28T13:29:11.668Z,11.55
2023-02-28T13:32:06.614Z,10.15
2023-02-28T13:34:35.169Z,10.52
2023-02-28T13:37:23.442Z,10.90
2023-02-28T13:39:54.590Z,8.93
2023-02-28T13:42:38.682Z,11.40
2023-02-28T13:45:05.773Z,9.88
2023-02-28T13:47:37.965Z,10.48
2023-02-28T13:50:38.934Z,11.18
2023-02-28T13:53:15.386Z,9.85
2023-02-28T13:55:57.618Z,8.88
2023-02-28T13:58:47.256Z,8.05
2023-02-28T14:01:43.054Z,8.68
2023-02-28T14:04:25.329Z,6.78
2023-02-28T14:06:57.253Z,6.18
2023-02-28T14:09:49.765Z,6.60
2023-02-28T14:12:53.265Z,7.40
2023-02-28T14:15:36.624Z,7.50
2023-02-28T14:18:20.694Z,6.82
2023-02-28T14:20:50.151Z,7.75
2023-02-28T14:23:33.616Z,8.68
2023-02-28T14:29:19.813Z,8.18
2023-02-28T14:31:59.744Z,6.82
2023-02-28T14:34:46.429Z,5.90
2023-02-28T14:37:38.002Z,7.20
2023-02-28T14:40:06.067Z,7.75
2023-02-28T14:42:45.051Z,8.38
2023-02-28T14:45:23.081Z,8.57
2023-02-28T14:47:53.660Z,7.18
2023-02-28T14:50:39.180Z,8.85
2023-02-28T14:53:16.696Z,8.38
2023-02-28T14:55:47.248Z,9.05
2023-02-28T14:58:35.102Z,8.38
2023-02-28T15:01:04.822Z,9.07
2023-02-28T15:03:36.465Z,8.98
2023-02-28T15:06:06.477Z,7.80
2023-02-28T15:08:37.360Z,9.60
2023-02-28T15:11:24.866Z,10.15
2023-02-28T15:13:56.625Z,8.65
2023-02-28T15:16:36.268Z,11.55
2023-02-28T15:19:13.250Z,11.20
2023-02-28T15:21:44.974Z,8.63
2023-02-28T15:24:25.010Z,10.05
2023-02-28T15:26:59.151Z,9.57
2023-02-28T15:29:29.377Z,9.27
2023-02-28T15:32:08.403Z,10.00
2023-02-28T15:34:46.103Z,9.10
2023-02-28T15:37:34.571Z,9.20
2023-02-28T15:40:24.936Z,10.30
2023-02-28T15:43:16.579Z,12.38
2023-02-28T15:46:01.410Z,11.48
2023-02-28T15:48:35.344Z,9.88
2023-02-28T15:51:04.078Z,9.30
2023-02-28T15:53:37.036Z,7.78
2023-02-28T15:56:07.862Z,9.15
2023-02-28T15:58:38.230Z,8.65
2023-02-28T16:01:07.176Z,8.35
2023-02-28T16:03:43.938Z,8.68
2023-02-28T16:06:23.338Z,8.88
2023-02-28T16:08:52.544Z,8.07
2023-02-28T16:11:21.586Z,9.60
2023-02-28T16:13:49.967Z,7.72
2023-02-28T16:16:27.414Z,8.20
2023-02-28T16:18:56.291Z,9.23
2023-02-28T16:21:27.068Z,8.68
2023-02-28T16:23:54.239Z,7.80
2023-02-28T16:26:26.230Z,8.82
2023-02-28T16:28:53.670Z,7.90
2023-02-28T16:31:21.836Z,7.93
2023-02-28T16:33:49.359Z,8.43
2023-02-28T16:36:21.823Z,8.18
2023-02-28T16:38:49.095Z,7.32
2023-02-28T16:41:21.485Z,7.32
2023-02-28T16:43:53.113Z,7.97
2023-02-28T16:46:22.114Z,9.30
2023-02-28T16:48:52.743Z,7.93
2023-02-28T16:51:19.896Z,7.70
2023-02-28T16:53:47.338Z,7.45
2023-02-28T16:56:23.368Z,8.02
2023-02-28T16:58:51.737Z,7.60
2023-02-28T17:01:23.766Z,7.78
2023-02-28T17:03:52.372Z,9.18
2023-02-28T17:06:26.310Z,7.53
2023-02-28T17:08:53.547Z,7.57
2023-02-28T17:11:22.620Z,8.35
2023-02-28T17:13:50.255Z,8.25
2023-02-28T17:16:30.966Z,7.50
2023-02-28T17:19:01.674Z,8.90
2023-02-28T17:21:29.464Z,10.07
2023-02-28T17:23:57.214Z,9.43
2023-02-28T17:26:29.325Z,9.00
2023-02-28T17:28:58.167Z,8.23
2023-02-28T17:31:28.873Z,9.57
2023-02-28T17:33:56.270Z,10.65
2023-02-28T17:36:27.026Z,9.70
2023-02-28T17:38:56.397Z,8.77
2023-02-28T17:41:24.426Z,8.75
2023-02-28T17:43:52.104Z,8.50
2023-02-28T17:46:22.217Z,8.68
2023-02-28T17:48:54.257Z,8.38
2023-02-28T17:51:25.468Z,8.77
2023-02-28T17:53:53.833Z,9.90
2023-02-28T17:56:27.182Z,9.50
2023-02-28T18:01:25.490Z,8.35
2023-02-28T18:03:53.677Z,9.32
2023-02-28T18:06:26.463Z,8.85
2023-02-28T18:08:54.398Z,8.70
2023-02-28T18:11:24.477Z,9.82
2023-02-28T18:13:54.298Z,8.70
2023-02-28T18:16:23.162Z,9.90
2023-02-28T18:18:50.801Z,9.63
2023-02-28T18:21:18.328Z,9.50
2023-02-28T18:23:48.734Z,9.40
2023-02-28T18:26:17.638Z,10.73
2023-02-28T18:28:45.799Z,9.73
2023-02-28T18:31:18.348Z,10.05
2023-02-28T18:33:49.296Z,9.95
2023-02-28T18:36:17.234Z,9.57
2023-02-28T18:38:44.454Z,9.20
2023-02-28T18:41:12.018Z,9.55
2023-02-28T18:43:39.592Z,10.07
2023-02-28T18:46:12.071Z,11.90
2023-02-28T18:48:39.870Z,10.20
2023-02-28T18:51:12.839Z,10.38
2023-02-28T18:53:41.536Z,10.82
2023-02-28T18:56:11.160Z,10.13
2023-02-28T18:58:38.502Z,9.98
2023-02-28T19:01:22.270Z,12.48
2023-02-28T19:03:51.192Z,11.75
2023-02-28T19:06:19.720Z,12.00
2023-02-28T19:08:47.957Z,12.90
2023-02-28T19:11:19.069Z,12.60
2023-02-28T19:13:47.006Z,14.45
2023-02-28T19:16:17.166Z,15.38
2023-02-28T19:18:45.398Z,13.27
2023-02-28T19:21:15.848Z,14.63
2023-02-28T19:23:44.993Z,14.23
2023-02-28T19:26:18.743Z,16.17
2023-02-28T19:28:48.110Z,15.98
2023-02-28T19:31:24.984Z,15.65
2023-02-28T19:33:56.204Z,15.70
2023-02-28T19:36:25.026Z,16.65
2023-02-28T19:38:53.420Z,16.83
2023-02-28T19:41:23.678Z,15.77
2023-02-28T19:43:55.098Z,18.05
2023-02-28T19:46:26.209Z,17.92
2023-02-28T19:48:55.128Z,16.55
2023-02-28T19:51:24.994Z,17.27
2023-02-28T19:53:53.772Z,17.27
2023-02-28T19:56:23.026Z,17.40
2023-02-28T19:58:51.879Z,17.23
2023-02-28T20:01:21.596Z,19.05
2023-02-28T20:03:51.671Z,17.50
2023-02-28T20:06:21.796Z,17.13
2023-02-28T20:08:50.547Z,18.55
2023-02-28T20:11:19.258Z,16.58
2023-02-28T20:13:48.476Z,16.75
2023-02-28T20:16:18.488Z,18.35
2023-02-28T20:18:54.086Z,16.90
2023-02-28T20:21:22.490Z,16.85
2023-02-28T20:23:51.527Z,17.70
2023-02-28T20:26:20.827Z,18.55
2023-02-28T20:28:49.633Z,17.33
2023-02-28T20:31:26.470Z,18.92
2023-02-28T20:33:54.875Z,19.80
2023-02-28T20:36:24.096Z,20.13
2023-02-28T20:38:53.675Z,18.55
2023-02-28T20:41:23.143Z,17.60
2023-02-28T20:43:55.636Z,17.80
2023-02-28T20:46:26.328Z,17.45
2023-02-28T20:48:55.271Z,19.08
2023-02-28T20:51:24.572Z,16.85
2023-02-28T20:53:53.461Z,17.42
2023-02-28T20:56:24.506Z,17.95
2023-02-28T20:58:57.179Z,17.70
2023-02-28T21:01:27.890Z,17.85
2023-02-28T21:04:01.925Z,15.77
2023-02-28T21:06:34.196Z,18.88
2023-02-28T21:09:03.194Z,18.38
2023-02-28T21:11:35.750Z,19.88
2023-02-28T21:14:07.121Z,18.35
2023-02-28T21:16:37.810Z,19.60
2023-02-28T21:19:06.517Z,18.73
2023-02-28T21:21:48.775Z,17.30
2023-02-28T21:24:20.947Z,18.50
2023-02-28T21:26:50.384Z,17.23
2023-02-28T21:29:19.144Z,17.40
2023-02-28T21:31:47.494Z,21.00
2023-02-28T21:34:15.766Z,15.95
2023-02-28T21:36:47.857Z,16.88
2023-02-28T21:39:26.366Z,17.08
2023-02-28T21:41:55.096Z,15.45
2023-02-28T21:44:23.070Z,16.45
2023-02-28T21:46:55.306Z,15.40
2023-02-28T21:49:22.606Z,15.38
2023-02-28T21:51:50.221Z,15.98
2023-02-28T21:54:17.563Z,17.50
2023-02-28T21:56:44.811Z,16.15
2023-02-28T21:59:12.298Z,16.63
2023-02-28T22:01:41.617Z,15.65
2023-02-28T22:04:10.825Z,14.45
2023-02-28T22:06:41.420Z,13.77
2023-02-28T22:09:10.288Z,15.23
2023-02-28T22:11:39.002Z,14.45
2023-02-28T22:14:07.754Z,14.05
2023-02-28T22:16:50.136Z,13.65
2023-02-28T22:19:20.309Z,12.55
2023-02-28T22:21:47.880Z,12.27
2023-02-28T22:24:18.110Z,13.55
2023-02-28T22:26:45.344Z,15.75
2023-02-28T22:29:12.501Z,13.45
2023-02-28T22:31:39.954Z,13.88
2023-02-28T22:34:11.103Z,14.63
2023-02-28T22:36:41.468Z,16.75
2023-02-28T22:39:11.157Z,18.17
2023-02-28T22:41:38.818Z,16.63
2023-02-28T22:44:07.573Z,16.90
2023-02-28T22:46:35.889Z,15.27
2023-02-28T22:49:05.112Z,13.73
2023-02-28T22:51:32.663Z,16.25
2023-02-28T22:53:59.779Z,12.20
2023-02-28T22:56:29.741Z,13.80
2023-02-28T22:58:58.530Z,12.55
2023-02-28T23:01:28.911Z,13.50
2023-02-28T23:03:56.956Z,18.77
2023-02-28T23:06:30.759Z,16.52
2023-02-28T23:09:01.209Z,15.10
2023-02-28T23:11:34.788Z,13.23
2023-02-28T23:14:02.141Z,12.73
2023-02-28T23:16:38.976Z,12.68
2023-02-28T23:19:09.145Z,12.45
2023-02-28T23:21:36.834Z,13.02
2023-02-28T23:24:10.773Z,11.20
2023-02-28T23:26:39.757Z,12.20
2023-02-28T23:29:07.288Z,12.63
2023-02-28T23:31:34.741Z,11.05
2023-02-28T23:34:02.202Z,12.52
2023-02-28T23:36:29.745Z,10.13
2023-02-28T23:38:57.258Z,8.98
2023-02-28T23:41:25.309Z,8.88
2023-02-28T23:43:53.303Z,9.63
2023-02-28T23:46:21.776Z,8.90
2023-02-28T23:48:49.198Z,8.50
2023-02-28T23:51:18.817Z,6.95
2023-02-28T23:53:50.265Z,7.82
2023-02-28T23:56:20.908Z,7.65
2023-02-28T23:58:48.811Z,7.93
